createdAt,value
2018-10-18T00:01:34.895Z,9.04
2018-10-18T00:04:05.710Z,9.16
2018-10-18T00:06:34.854Z,9.25
2018-10-18T00:09:05.122Z,9.30
2018-10-18T00:11:34.239Z,9.28
2018-10-18T00:14:03.402Z,9.13
2018-10-18T00:16:32.540Z,9.13
2018-10-18T00:19:01.766Z,8.94
2018-10-18T00:21:30.867Z,8.81
2018-10-18T00:24:00.031Z,8.72
2018-10-18T00:26:29.948Z,8.75
2018-10-18T00:28:59.068Z,8.87
2018-10-18T00:31:28.866Z,8.91
2018-10-18T00:33:58.122Z,8.95
2018-10-18T00:36:27.228Z,9.02
2018-10-18T00:38:56.768Z,8.90
2018-10-18T00:41:25.909Z,8.81
2018-10-18T00:43:55.116Z,8.61
2018-10-18T00:46:24.514Z,8.53
2018-10-18T00:48:53.647Z,8.59
2018-10-18T00:51:23.238Z,8.69
2018-10-18T00:53:52.605Z,8.79
2018-10-18T00:56:21.698Z,8.79
2018-10-18T00:58:50.802Z,8.73
2018-10-18T01:01:19.919Z,8.77
2018-10-18T01:03:50.014Z,8.79
2018-10-18T01:06:19.354Z,8.78
2018-10-18T01:08:48.656Z,8.62
2018-10-18T01:11:17.781Z,8.52
2018-10-18T01:13:46.939Z,8.48
2018-10-18T01:16:16.329Z,8.54
2018-10-18T01:18:45.452Z,8.54
2018-10-18T01:21:14.550Z,8.41
2018-10-18T01:23:43.703Z,8.32
2018-10-18T01:26:12.891Z,8.28
2018-10-18T01:28:42.551Z,8.28
2018-10-18T01:31:11.742Z,8.28
2018-10-18T01:33:40.847Z,8.43
2018-10-18T01:36:10.037Z,8.35
2018-10-18T01:38:39.418Z,8.32
2018-10-18T01:41:08.660Z,8.31
2018-10-18T01:43:37.821Z,8.33
2018-10-18T01:46:07.406Z,8.14
2018-10-18T01:48:37.050Z,8.12
2018-10-18T01:51:06.575Z,8.28
2018-10-18T01:53:36.086Z,8.29
2018-10-18T01:56:05.606Z,8.15
2018-10-18T01:58:34.750Z,7.94
2018-10-18T02:01:04.098Z,8.07
2018-10-18T02:03:33.187Z,8.18
2018-10-18T02:06:02.378Z,8.20
2018-10-18T02:08:31.419Z,8.12
2018-10-18T02:11:00.512Z,8.04
2018-10-18T02:13:29.655Z,7.89
2018-10-18T02:15:58.751Z,7.80
2018-10-18T02:18:29.395Z,7.92
2018-10-18T02:20:58.647Z,8.00
2018-10-18T02:23:27.787Z,8.06
2018-10-18T02:25:56.954Z,8.12
2018-10-18T02:28:26.109Z,8.16
2018-10-18T02:30:55.270Z,8.19
2018-10-18T02:33:24.550Z,8.05
2018-10-18T02:35:53.504Z,8.03
2018-10-18T02:38:23.922Z,7.81
2018-10-18T02:40:53.054Z,7.75
2018-10-18T02:43:22.377Z,7.73
2018-10-18T02:45:51.967Z,7.70
2018-10-18T02:48:21.112Z,7.87
2018-10-18T02:50:50.262Z,7.95
2018-10-18T02:53:19.443Z,7.96
2018-10-18T02:55:49.174Z,7.94
2018-10-18T02:58:19.421Z,8.02
2018-10-18T03:00:49.057Z,8.09
2018-10-18T03:03:17.986Z,8.04
2018-10-18T03:05:47.158Z,8.03
2018-10-18T03:08:16.327Z,7.98
2018-10-18T03:10:45.489Z,8.03
2018-10-18T03:13:14.662Z,8.04
2018-10-18T03:15:43.854Z,8.10
2018-10-18T03:18:13.144Z,8.10
2018-10-18T03:20:42.547Z,8.10
2018-10-18T03:23:11.705Z,8.09
2018-10-18T03:25:40.814Z,7.99
2018-10-18T03:28:09.954Z,7.97
2018-10-18T03:30:39.821Z,7.92
2018-10-18T03:33:08.953Z,7.94
2018-10-18T03:35:38.424Z,7.94
2018-10-18T03:38:07.637Z,7.99
2018-10-18T03:40:37.002Z,7.96
2018-10-18T03:43:06.370Z,7.97
2018-10-18T03:45:35.551Z,8.02
2018-10-18T03:48:04.834Z,8.05
2018-10-18T03:50:33.939Z,8.09
2018-10-18T03:53:03.360Z,8.13
2018-10-18T03:55:32.535Z,8.10
2018-10-18T03:58:01.869Z,8.12
2018-10-18T04:00:30.997Z,8.13
2018-10-18T04:03:00.445Z,8.19
2018-10-18T04:05:29.757Z,8.19
2018-10-18T04:07:58.941Z,7.95
2018-10-18T04:10:28.120Z,7.77
2018-10-18T04:12:57.323Z,7.73
2018-10-18T04:15:26.898Z,7.66
2018-10-18T04:17:56.602Z,7.61
2018-10-18T04:20:25.741Z,7.48
2018-10-18T04:22:54.893Z,7.46
2018-10-18T04:25:24.108Z,7.39
2018-10-18T04:27:53.205Z,7.33
2018-10-18T04:30:22.866Z,7.27
2018-10-18T04:32:52.034Z,7.29
2018-10-18T04:35:23.245Z,7.43
2018-10-18T04:37:52.593Z,7.47
2018-10-18T04:40:21.782Z,7.51
2018-10-18T04:42:50.942Z,7.38
2018-10-18T04:45:20.082Z,7.39
2018-10-18T04:47:49.282Z,7.30
2018-10-18T04:50:18.397Z,7.45
2018-10-18T04:52:47.586Z,7.76
2018-10-18T04:55:16.814Z,7.80
2018-10-18T04:57:45.870Z,7.79
2018-10-18T05:00:15.486Z,7.78
2018-10-18T05:02:44.860Z,7.54
2018-10-18T05:05:30.955Z,7.38
2018-10-18T05:08:00.830Z,7.45
2018-10-18T05:10:30.609Z,7.34
2018-10-18T05:12:59.936Z,7.27
2018-10-18T05:15:29.991Z,7.40
2018-10-18T05:17:59.142Z,7.44
2018-10-18T05:20:28.294Z,7.44
2018-10-18T05:22:57.807Z,7.44
2018-10-18T05:25:27.034Z,7.43
2018-10-18T05:27:56.057Z,7.27
2018-10-18T05:30:26.248Z,7.19
2018-10-18T05:32:55.807Z,7.10
2018-10-18T05:35:24.953Z,7.04
2018-10-18T05:37:54.138Z,7.11
2018-10-18T05:40:23.261Z,7.27
2018-10-18T05:42:52.538Z,7.36
2018-10-18T05:45:21.662Z,7.46
2018-10-18T05:47:51.243Z,7.46
2018-10-18T05:50:21.080Z,7.64
2018-10-18T05:52:50.252Z,7.91
2018-10-18T05:55:19.631Z,8.06
2018-10-18T05:57:48.809Z,8.23
2018-10-18T06:00:18.924Z,8.27
2018-10-18T06:02:48.221Z,8.14
2018-10-18T06:05:17.992Z,8.09
2018-10-18T06:07:47.242Z,8.07
2018-10-18T06:10:33.461Z,8.05
2018-10-18T06:13:02.625Z,7.94
2018-10-18T06:15:31.686Z,7.98
2018-10-18T06:18:01.654Z,8.10
2018-10-18T06:20:30.770Z,8.15
2018-10-18T06:22:59.969Z,8.20
2018-10-18T06:25:29.030Z,8.21
2018-10-18T06:27:58.192Z,8.26
2018-10-18T06:30:27.332Z,8.37
2018-10-18T06:32:57.043Z,8.49
2018-10-18T06:35:27.489Z,8.56
2018-10-18T06:37:56.637Z,8.84
2018-10-18T06:40:25.793Z,9.14
2018-10-18T06:42:54.964Z,9.16
2018-10-18T06:45:24.129Z,9.26
2018-10-18T06:47:53.573Z,9.32
2018-10-18T06:50:22.442Z,9.43
2018-10-18T06:52:51.562Z,9.56
2018-10-18T06:55:21.530Z,9.62
2018-10-18T06:57:50.709Z,9.77
2018-10-18T07:00:22.487Z,9.80
2018-10-18T07:02:52.279Z,9.90
2018-10-18T07:05:21.637Z,10.11
2018-10-18T07:07:50.954Z,10.41
2018-10-18T07:10:20.086Z,10.62
2018-10-18T07:12:49.285Z,10.71
2018-10-18T07:15:19.174Z,10.81
2018-10-18T07:17:49.036Z,11.20
2018-10-18T07:20:18.062Z,11.25
2018-10-18T07:22:47.197Z,11.56
2018-10-18T07:25:16.697Z,11.71
2018-10-18T07:27:45.846Z,12.20
2018-10-18T07:30:15.651Z,12.58
2018-10-18T07:32:45.094Z,12.67
2018-10-18T07:35:14.924Z,12.56
2018-10-18T07:37:44.100Z,12.13
2018-10-18T07:40:15.569Z,12.05
2018-10-18T07:42:44.870Z,11.80
2018-10-18T07:45:15.357Z,11.81
2018-10-18T07:47:45.185Z,11.98
2018-10-18T07:50:14.391Z,12.34
2018-10-18T07:52:43.530Z,13.17
2018-10-18T07:55:12.745Z,14.02
2018-10-18T07:57:41.966Z,14.89
2018-10-18T08:00:14.545Z,15.17
2018-10-18T08:02:44.786Z,16.16
2018-10-18T08:05:14.714Z,17.26
2018-10-18T08:07:44.565Z,17.47
2018-10-18T08:10:15.456Z,17.25
2018-10-18T08:12:44.638Z,18.39
2018-10-18T08:15:15.011Z,19.25
2018-10-18T08:17:44.753Z,19.93
2018-10-18T08:20:14.478Z,19.42
2018-10-18T08:22:44.950Z,19.76
2018-10-18T08:25:13.739Z,19.78
2018-10-18T08:27:42.947Z,18.83
2018-10-18T08:30:13.422Z,17.83
2018-10-18T08:32:42.594Z,17.28
2018-10-18T08:35:12.800Z,16.68
2018-10-18T08:37:42.379Z,15.98
2018-10-18T08:40:11.470Z,15.28
2018-10-18T08:48:40.355Z,15.09
2018-10-18T08:51:09.951Z,15.29
2018-10-18T08:53:39.367Z,16.06
2018-10-18T08:56:09.010Z,17.35
2018-10-18T08:58:38.250Z,18.92
2018-10-18T09:01:07.541Z,20.19
2018-10-18T09:03:37.484Z,21.32
2018-10-18T09:06:06.729Z,21.82
2018-10-18T09:08:36.845Z,22.23
2018-10-18T09:11:06.593Z,23.02
2018-10-18T09:13:35.751Z,23.97
2018-10-18T09:16:06.020Z,25.12
2018-10-18T09:18:35.149Z,25.37
2018-10-18T09:21:04.266Z,25.74
2018-10-18T09:23:33.416Z,26.62
2018-10-18T09:26:02.614Z,26.34
2018-10-18T09:28:32.258Z,25.88
2018-10-18T09:31:01.873Z,27.02
2018-10-18T09:33:31.093Z,27.27
2018-10-18T09:36:00.639Z,27.84
2018-10-18T09:38:29.919Z,27.62
2018-10-18T09:40:59.470Z,27.42
2018-10-18T09:43:29.210Z,27.20
2018-10-18T09:45:58.600Z,27.30
2018-10-18T09:48:28.211Z,26.61
2018-10-18T09:50:57.722Z,27.18
2018-10-18T09:53:26.897Z,27.34
2018-10-18T09:55:56.431Z,27.74
2018-10-18T09:58:25.546Z,28.14
2018-10-18T10:01:01.357Z,28.04
2018-10-18T10:03:37.203Z,28.10
2018-10-18T10:06:07.050Z,27.95
2018-10-18T10:08:36.658Z,28.37
2018-10-18T10:11:05.862Z,27.72
2018-10-18T10:13:35.263Z,29.16
2018-10-18T10:16:04.506Z,30.00
2018-10-18T10:18:33.854Z,30.55
2018-10-18T10:21:05.102Z,31.55
2018-10-18T10:23:34.206Z,31.65
2018-10-18T10:26:03.662Z,29.98
2018-10-18T10:28:32.850Z,30.48
2018-10-18T10:31:02.089Z,31.33
2018-10-18T10:33:46.319Z,31.11
2018-10-18T10:36:15.452Z,30.55
2018-10-18T10:38:44.580Z,31.65
2018-10-18T10:41:13.765Z,32.02
2018-10-18T10:43:42.882Z,32.22
2018-10-18T10:46:12.052Z,30.27
2018-10-18T10:48:41.573Z,28.87
2018-10-18T10:51:10.919Z,25.27
2018-10-18T10:53:40.008Z,23.54
2018-10-18T10:56:09.154Z,23.46
2018-10-18T10:58:38.254Z,23.25
2018-10-18T11:01:10.378Z,22.45
2018-10-18T11:03:40.925Z,22.62
2018-10-18T11:06:10.671Z,21.45
2018-10-18T11:08:39.758Z,21.45
2018-10-18T11:11:09.969Z,21.75
2018-10-18T11:13:39.071Z,21.89
2018-10-18T11:16:08.651Z,21.88
2018-10-18T11:18:38.857Z,20.86
2018-10-18T11:21:09.415Z,19.96
2018-10-18T11:23:38.494Z,19.20
2018-10-18T11:26:08.870Z,18.94
2018-10-18T11:28:38.007Z,19.00
2018-10-18T11:31:07.127Z,19.16
2018-10-18T11:33:36.241Z,18.67
2018-10-18T11:36:05.412Z,18.68
2018-10-18T11:38:34.527Z,18.46
2018-10-18T11:41:04.376Z,18.49
2018-10-18T11:43:34.264Z,18.72
2018-10-18T11:46:03.494Z,18.76
2018-10-18T11:48:32.687Z,18.71
2018-10-18T11:51:01.832Z,18.75
2018-10-18T11:53:31.423Z,18.90
2018-10-18T11:56:00.575Z,19.10
2018-10-18T11:58:29.746Z,19.09
2018-10-18T12:00:59.530Z,19.37
2018-10-18T12:03:28.635Z,19.58
2018-10-18T12:05:57.810Z,19.66
2018-10-18T12:08:26.934Z,19.84
2018-10-18T12:10:56.084Z,19.75
2018-10-18T12:13:25.608Z,19.48
2018-10-18T12:15:54.753Z,19.55
2018-10-18T12:18:23.950Z,19.57
2018-10-18T12:20:53.177Z,19.62
2018-10-18T12:23:22.331Z,19.53
2018-10-18T12:25:51.678Z,19.67
2018-10-18T12:28:20.366Z,19.96
2018-10-18T12:30:49.545Z,20.24
2018-10-18T12:33:18.642Z,20.26
2018-10-18T12:35:47.756Z,20.34
2018-10-18T12:38:17.019Z,19.93
2018-10-18T12:40:46.092Z,20.05
2018-10-18T12:43:15.183Z,20.09
2018-10-18T12:45:44.335Z,20.08
2018-10-18T12:48:13.558Z,20.18
2018-10-18T12:50:43.318Z,20.06
2018-10-18T12:53:12.488Z,20.17
2018-10-18T12:55:41.594Z,20.14
2018-10-18T12:58:10.782Z,20.20
2018-10-18T13:00:39.915Z,20.14
2018-10-18T13:03:10.460Z,20.30
2018-10-18T13:05:39.570Z,20.29
2018-10-18T13:08:08.723Z,20.34
2018-10-18T13:10:37.827Z,20.17
2018-10-18T13:13:06.961Z,20.36
2018-10-18T13:15:36.134Z,20.44
2018-10-18T13:18:06.463Z,20.31
2018-10-18T13:20:35.534Z,20.47
2018-10-18T13:23:04.716Z,20.53
2018-10-18T13:25:34.161Z,20.60
2018-10-18T13:28:03.927Z,20.34
2018-10-18T13:30:33.258Z,20.40
2018-10-18T13:33:02.411Z,20.33
2018-10-18T13:35:31.587Z,20.30
2018-10-18T13:38:01.041Z,20.35
2018-10-18T13:40:30.162Z,20.34
2018-10-18T13:42:59.354Z,20.41
2018-10-18T13:45:28.474Z,20.34
2018-10-18T13:47:58.208Z,20.37
2018-10-18T13:50:28.274Z,20.40
2018-10-18T13:52:59.150Z,20.49
2018-10-18T13:55:28.314Z,20.55
2018-10-18T13:57:57.914Z,20.47
2018-10-18T14:00:28.626Z,20.43
2018-10-18T14:02:57.794Z,20.55
2018-10-18T14:05:28.302Z,20.44
2018-10-18T14:07:57.903Z,20.47
2018-10-18T14:10:33.045Z,20.59
2018-10-18T14:13:02.350Z,20.54
2018-10-18T14:15:31.661Z,20.33
2018-10-18T14:18:00.816Z,20.37
2018-10-18T14:20:29.971Z,20.31
2018-10-18T14:22:59.169Z,20.22
2018-10-18T14:25:28.309Z,20.25
2018-10-18T14:27:57.441Z,20.21
2018-10-18T14:30:27.122Z,20.08
2018-10-18T14:32:56.182Z,20.10
2018-10-18T14:35:25.318Z,20.08
2018-10-18T14:37:54.488Z,20.06
2018-10-18T14:40:23.565Z,19.95
2018-10-18T14:42:52.720Z,19.89
2018-10-18T14:45:21.927Z,19.84
2018-10-18T14:47:51.135Z,19.76
2018-10-18T14:50:20.346Z,19.76
2018-10-18T14:52:49.519Z,19.75
2018-10-18T14:55:18.633Z,19.73
2018-10-18T14:57:47.802Z,19.68
2018-10-18T15:00:17.042Z,19.69
2018-10-18T15:02:46.158Z,19.64
2018-10-18T15:05:15.460Z,19.61
2018-10-18T15:07:44.930Z,19.58
2018-10-18T15:10:15.247Z,19.51
2018-10-18T15:12:44.892Z,19.53
2018-10-18T15:15:14.653Z,19.44
2018-10-18T15:17:43.887Z,19.46
2018-10-18T15:20:14.149Z,19.44
2018-10-18T15:22:43.601Z,19.35
2018-10-18T15:25:13.524Z,19.33
2018-10-18T15:27:43.224Z,19.32
2018-10-18T15:30:12.802Z,19.16
2018-10-18T15:32:42.038Z,19.16
2018-10-18T15:35:12.021Z,19.15
2018-10-18T15:37:41.452Z,19.03
2018-10-18T15:40:10.670Z,19.06
2018-10-18T15:42:40.602Z,18.90
2018-10-18T15:45:10.467Z,18.82
2018-10-18T15:47:46.247Z,18.72
2018-10-18T15:50:15.433Z,18.60
2018-10-18T15:52:44.611Z,18.77
2018-10-18T15:55:13.786Z,18.84
2018-10-18T15:57:43.327Z,18.70
2018-10-18T16:00:12.742Z,18.68
2018-10-18T16:02:42.170Z,18.55
2018-10-18T16:05:11.577Z,18.48
2018-10-18T16:07:40.551Z,18.33
2018-10-18T16:10:10.894Z,18.25
2018-10-18T16:12:40.640Z,18.12
2018-10-18T16:15:11.538Z,17.98
2018-10-18T16:17:41.098Z,17.87
2018-10-18T16:20:11.633Z,17.84
2018-10-18T16:22:40.794Z,17.67
2018-10-18T16:25:11.306Z,17.54
2018-10-18T16:27:41.589Z,17.53
2018-10-18T16:30:11.618Z,17.59
2018-10-18T16:32:41.482Z,17.48
2018-10-18T16:35:10.832Z,17.28
2018-10-18T16:37:39.850Z,17.42
2018-10-18T16:40:11.877Z,17.43
2018-10-18T16:42:41.034Z,17.39
2018-10-18T16:45:12.991Z,17.32
2018-10-18T16:47:42.217Z,17.08
2018-10-18T16:50:11.995Z,17.03
2018-10-18T16:52:41.050Z,16.81
2018-10-18T16:55:10.814Z,16.70
2018-10-18T16:57:39.957Z,16.67
2018-10-18T17:00:10.524Z,16.75
2018-10-18T17:02:39.747Z,16.77
2018-10-18T17:05:09.022Z,16.66
2018-10-18T17:07:38.608Z,16.65
2018-10-18T17:10:08.032Z,16.65
2018-10-18T17:12:37.277Z,16.54
2018-10-18T17:15:07.646Z,16.48
2018-10-18T17:17:37.667Z,16.47
2018-10-18T17:20:08.015Z,16.43
2018-10-18T17:22:37.451Z,16.39
2018-10-18T17:25:08.016Z,16.21
2018-10-18T17:27:37.714Z,16.07
2018-10-18T17:30:08.119Z,16.11
2018-10-18T17:32:38.324Z,16.00
2018-10-18T17:35:07.472Z,15.99
2018-10-18T17:37:36.622Z,16.02
2018-10-18T17:40:06.445Z,16.00
2018-10-18T17:42:36.389Z,15.97
2018-10-18T17:45:06.963Z,15.94
2018-10-18T17:47:36.471Z,15.91
2018-10-18T17:50:07.436Z,15.83
2018-10-18T17:52:37.923Z,15.89
2018-10-18T17:55:08.543Z,15.90
2018-10-18T17:57:38.348Z,15.82
2018-10-18T18:00:11.493Z,15.78
2018-10-18T18:02:40.799Z,15.96
2018-10-18T18:05:11.391Z,15.88
2018-10-18T18:07:40.859Z,15.94
2018-10-18T18:10:13.821Z,15.99
2018-10-18T18:12:42.826Z,15.93
2018-10-18T18:15:12.106Z,16.06
2018-10-18T18:17:41.486Z,15.94
2018-10-18T18:20:12.067Z,15.84
2018-10-18T18:22:41.602Z,15.62
2018-10-18T18:25:11.850Z,15.61
2018-10-18T18:27:41.168Z,15.76
2018-10-18T18:30:13.357Z,15.59
2018-10-18T18:32:43.074Z,15.35
2018-10-18T18:35:12.290Z,15.07
2018-10-18T18:37:41.429Z,14.97
2018-10-18T18:40:11.194Z,14.89
2018-10-18T18:42:40.899Z,14.62
2018-10-18T18:45:15.422Z,14.51
2018-10-18T18:47:44.516Z,14.35
2018-10-18T18:50:13.711Z,14.27
2018-10-18T18:52:43.574Z,14.32
2018-10-18T18:55:12.731Z,14.14
2018-10-18T18:57:42.066Z,13.97
2018-10-18T19:00:11.584Z,13.94
2018-10-18T19:02:43.122Z,13.84
2018-10-18T19:05:12.446Z,13.80
2018-10-18T19:07:41.758Z,13.80
2018-10-18T19:10:11.334Z,13.66
2018-10-18T19:12:40.467Z,13.67
2018-10-18T19:15:09.952Z,13.68
2018-10-18T19:17:40.372Z,13.59
2018-10-18T19:20:10.382Z,13.62
2018-10-18T19:22:39.565Z,13.58
2018-10-18T19:25:09.170Z,13.60
2018-10-18T19:27:38.923Z,13.52
2018-10-18T19:30:14.889Z,13.47
2018-10-18T19:32:44.601Z,13.38
2018-10-18T19:35:13.853Z,13.43
2018-10-18T19:37:43.066Z,13.38
2018-10-18T19:40:12.301Z,13.34
2018-10-18T19:42:41.466Z,13.30
2018-10-18T19:45:10.858Z,13.14
2018-10-18T19:47:40.489Z,13.21
2018-10-18T19:50:09.966Z,13.01
2018-10-18T19:52:39.198Z,12.95
2018-10-18T19:55:08.847Z,12.85
2018-10-18T19:57:38.087Z,12.66
2018-10-18T20:00:08.815Z,12.65
2018-10-18T20:02:38.954Z,12.45
2018-10-18T20:05:08.562Z,12.31
2018-10-18T20:07:37.877Z,12.19
2018-10-18T20:10:07.582Z,12.26
2018-10-18T20:12:36.839Z,12.37
2018-10-18T20:15:07.937Z,12.35
2018-10-18T20:17:37.503Z,12.42
2018-10-18T20:20:09.281Z,12.43
2018-10-18T20:22:39.131Z,12.45
2018-10-18T20:25:09.152Z,12.21
2018-10-18T20:27:38.792Z,12.20
2018-10-18T20:30:12.313Z,12.15
2018-10-18T20:32:42.098Z,12.20
2018-10-18T20:35:12.182Z,12.18
2018-10-18T20:37:42.090Z,12.02
2018-10-18T20:40:13.854Z,11.94
2018-10-18T20:42:43.539Z,11.95
2018-10-18T20:45:19.183Z,12.00
2018-10-18T20:47:48.906Z,11.88
2018-10-18T20:50:18.106Z,11.82
2018-10-18T20:52:48.344Z,11.84
2018-10-18T20:55:17.525Z,11.86
2018-10-18T20:57:46.686Z,11.91
2018-10-18T21:00:15.918Z,11.88
2018-10-18T21:02:46.203Z,11.85
2018-10-18T21:05:15.171Z,11.82
2018-10-18T21:07:44.742Z,11.89
2018-10-18T21:10:15.231Z,12.11
2018-10-18T21:12:44.547Z,12.06
2018-10-18T21:15:15.346Z,12.27
2018-10-18T21:17:45.203Z,12.14
2018-10-18T21:20:14.323Z,12.22
2018-10-18T21:22:43.623Z,12.26
2018-10-18T21:25:12.758Z,12.17
2018-10-18T21:27:42.442Z,12.08
2018-10-18T21:30:11.552Z,12.11
2018-10-18T21:32:41.447Z,12.06
2018-10-18T21:35:10.647Z,12.02
2018-10-18T21:37:40.452Z,12.01
2018-10-18T21:40:09.279Z,11.94
2018-10-18T21:42:38.534Z,11.88
2018-10-18T21:45:07.721Z,12.02
2018-10-18T21:47:36.906Z,11.92
2018-10-18T21:50:06.758Z,11.91
2018-10-18T21:52:35.888Z,11.94
2018-10-18T21:55:05.452Z,11.84
2018-10-18T21:57:34.577Z,11.75
2018-10-18T22:00:03.785Z,11.89
2018-10-18T22:02:33.026Z,11.81
2018-10-18T22:05:02.214Z,11.65
2018-10-18T22:07:31.312Z,11.61
2018-10-18T22:10:01.157Z,11.97
2018-10-18T22:12:30.986Z,12.29
2018-10-18T22:15:00.727Z,12.16
2018-10-18T22:17:29.891Z,12.32
2018-10-18T22:19:59.138Z,12.03
2018-10-18T22:22:27.974Z,11.79
2018-10-18T22:24:57.086Z,11.81
2018-10-18T22:27:26.220Z,11.77
2018-10-18T22:29:55.992Z,11.78
2018-10-18T22:32:25.155Z,11.63
2018-10-18T22:34:54.608Z,11.43
2018-10-18T22:37:23.750Z,11.63
2018-10-18T22:39:52.974Z,11.71
2018-10-18T22:42:22.167Z,11.55
2018-10-18T22:44:51.744Z,11.59
2018-10-18T22:47:20.856Z,11.76
2018-10-18T22:49:49.996Z,11.64
2018-10-18T22:52:19.143Z,11.60
2018-10-18T22:54:49.191Z,11.96
2018-10-18T22:57:18.432Z,12.14
2018-10-18T22:59:47.950Z,11.92
2018-10-18T23:02:17.388Z,11.86
2018-10-18T23:04:46.622Z,11.82
2018-10-18T23:07:15.871Z,11.82
2018-10-18T23:09:45.018Z,11.79
2018-10-18T23:12:14.273Z,11.79
2018-10-18T23:14:43.493Z,11.93
2018-10-18T23:17:12.687Z,11.96
2018-10-18T23:19:41.782Z,12.14
2018-10-18T23:22:10.939Z,11.95
2018-10-18T23:24:40.346Z,11.67
2018-10-18T23:27:09.670Z,11.63
2018-10-18T23:29:39.782Z,11.66
2018-10-18T23:32:09.774Z,11.69
2018-10-18T23:34:38.930Z,11.41
2018-10-18T23:37:08.071Z,11.36
2018-10-18T23:39:37.578Z,11.33
2018-10-18T23:42:06.757Z,11.30
2018-10-18T23:44:35.925Z,11.29
2018-10-18T23:47:05.926Z,11.33
2018-10-18T23:49:35.630Z,11.22
2018-10-18T23:52:05.130Z,11.15
2018-10-18T23:54:34.838Z,11.26
2018-10-18T23:57:04.059Z,11.10
2018-10-18T23:59:33.195Z,10.90
